Time;durP1;ratioP1;P1;durP2;ratioP2;P2;SDS_P1;SDS_P2;PMS_P1;PMS_P2;Temp;Humidity;BMP_temperature;BMP_pressure;BME280_temperature;BME280_humidity;BME280_pressure;Samples;Min_cycle;Max_cycle;Signal;HPM_P1;HPM_P2
2022/08/08 00:02:46;;;;;;;8.80;7.60;;;13.60;99.90;;;;;;4971212;28;20069;-49
2022/08/08 00:05:27;;;;;;;7.63;6.13;;;13.50;99.90;;;;;;4956005;28;20062;-47
2022/08/08 00:08:32;;;;;;;5.50;4.43;;;13.50;99.90;;;;;;4958002;28;20803;-52
2022/08/08 00:11:22;;;;;;;6.40;5.00;;;13.40;99.90;;;;;;4962433;28;20069;-50
2022/08/08 00:14:06;;;;;;;5.10;4.35;;;13.40;99.90;;;;;;4956774;28;20047;-49
2022/08/08 00:16:39;;;;;;;4.53;3.97;;;13.30;99.90;;;;;;4984014;28;20057;-47
2022/08/08 00:19:19;;;;;;;4.50;4.10;;;13.30;99.90;;;;;;4999280;28;20084;-49
2022/08/08 00:21:55;;;;;;;5.35;4.05;;;13.30;99.90;;;;;;5001173;28;20108;-48
2022/08/08 00:24:27;;;;;;;4.38;3.90;;;13.20;99.90;;;;;;4999613;28;20483;-48
2022/08/08 00:27:00;;;;;;;3.97;3.67;;;13.20;99.90;;;;;;4982106;28;20187;-47
2022/08/08 00:30:17;;;;;;;6.18;4.45;;;13.20;99.90;;;;;;5003476;28;20369;-46
2022/08/08 00:33:16;;;;;;;5.55;4.93;;;13.20;99.90;;;;;;4965520;28;20588;-52
2022/08/08 00:36:08;;;;;;;6.20;5.00;;;13.20;99.90;;;;;;4948554;28;20145;-48
2022/08/08 00:38:53;;;;;;;4.88;4.38;;;13.20;99.90;;;;;;4965093;28;20623;-48
2022/08/08 00:41:41;;;;;;;4.90;4.38;;;13.10;99.90;;;;;;4956495;28;20455;-47
2022/08/08 00:44:10;;;;;;;6.78;5.05;;;13.00;99.90;;;;;;5003816;28;20141;-48
2022/08/08 00:47:38;;;;;;;6.22;4.30;;;12.90;99.90;;;;;;5010270;28;20080;-48
2022/08/08 00:50:56;;;;;;;6.15;5.07;;;12.90;99.90;;;;;;4907138;29;20087;-47
2022/08/08 00:53:34;;;;;;;7.85;5.45;;;12.90;99.90;;;;;;4869524;29;20100;-47
2022/08/08 00:56:15;;;;;;;4.40;4.00;;;12.90;99.90;;;;;;4872398;29;20067;-47
2022/08/08 00:59:18;;;;;;;5.82;4.32;;;12.90;99.90;;;;;;4871807;29;20059;-50
2022/08/08 01:02:00;;;;;;;5.90;3.97;;;12.90;99.90;;;;;;4869856;29;20109;-50
2022/08/08 01:04:53;;;;;;;4.18;3.10;;;12.90;99.90;;;;;;4869687;29;20061;-50
2022/08/08 01:07:37;;;;;;;;;;;12.90;99.90;;;;;;4870320;29;20076;-48
2022/08/08 01:10:38;;;;;;;4.50;2.97;;;12.90;99.90;;;;;;4873092;29;19999;-51
2022/08/08 01:13:22;;;;;;;3.30;3.00;;;12.90;99.90;;;;;;4894094;29;20079;-52
2022/08/08 01:16:01;;;;;;;5.28;3.15;;;12.90;99.90;;;;;;4873440;29;20440;-49
2022/08/08 01:18:45;;;;;;;3.45;2.97;;;12.90;99.90;;;;;;4888746;29;20059;-48
2022/08/08 01:21:42;;;;;;;6.13;3.88;;;13.00;99.90;;;;;;4888503;29;20088;-49
2022/08/08 01:24:41;;;;;;;4.45;4.05;;;13.00;99.90;;;;;;4888679;29;20196;-49
2022/08/08 01:27:39;;;;;;;4.00;3.55;;;13.10;99.90;;;;;;4958098;28;20432;-47
2022/08/08 01:30:05;;;;;;;4.13;3.72;;;13.20;99.90;;;;;;5043504;28;20045;-51
2022/08/08 01:33:00;;;;;;;5.18;4.55;;;13.20;99.90;;;;;;5044464;28;20083;-48
2022/08/08 01:35:37;;;;;;;6.22;5.57;;;13.20;99.90;;;;;;5045515;28;20419;-47
2022/08/08 01:38:18;;;;;;;7.25;6.55;;;13.20;99.90;;;;;;5042510;28;20068;-48
2022/08/08 01:40:47;;;;;;;7.80;5.03;;;13.10;99.90;;;;;;5045792;28;20061;-48
2022/08/08 01:43:41;;;;;;;4.97;4.50;;;13.10;99.90;;;;;;5045703;28;20495;-48
2022/08/08 01:46:20;;;;;;;7.07;4.85;;;13.10;99.90;;;;;;5045281;28;20139;-47
2022/08/08 01:49:14;;;;;;;6.72;5.45;;;13.10;99.90;;;;;;5043116;28;20056;-48
2022/08/08 01:51:58;;;;;;;7.78;5.78;;;13.00;99.90;;;;;;5044177;28;20735;-47
2022/08/08 01:54:58;;;;;;;5.18;3.85;;;13.10;99.90;;;;;;5045470;28;20048;-50
2022/08/08 01:58:02;;;;;;;6.63;4.90;;;13.00;99.90;;;;;;5046374;28;20049;-51
2022/08/08 02:00:46;;;;;;;5.20;4.50;;;13.00;99.90;;;;;;5059328;28;20819;-47
2022/08/08 02:03:41;;;;;;;5.60;4.28;;;13.00;99.90;;;;;;5084960;28;20858;-49
2022/08/08 02:06:26;;;;;;;5.40;4.88;;;13.00;99.90;;;;;;5085161;28;20116;-49
2022/08/08 02:09:13;;;;;;;9.73;6.40;;;13.00;99.90;;;;;;5063332;28;20056;-50
2022/08/08 02:11:43;;;;;;;5.70;5.10;;;13.00;99.90;;;;;;5060976;28;20063;-48
2022/08/08 02:14:40;;;;;;;6.43;5.75;;;13.00;99.90;;;;;;5084857;28;20215;-47
2022/08/08 02:17:20;;;;;;;7.82;7.03;;;13.00;99.90;;;;;;5084386;28;20044;-49
2022/08/08 02:19:59;;;;;;;8.02;6.38;;;13.00;99.90;;;;;;5085033;28;20131;-51
2022/08/08 02:22:55;;;;;;;5.97;5.47;;;13.10;99.90;;;;;;5084652;28;20498;-50
2022/08/08 02:25:40;;;;;;;6.50;5.90;;;13.10;99.90;;;;;;5053982;28;20147;-50
2022/08/08 02:28:19;;;;;;;8.02;6.75;;;13.10;99.90;;;;;;5084710;28;20056;-51
2022/08/08 02:31:03;;;;;;;8.02;6.60;;;13.00;99.90;;;;;;5085358;28;20044;-50
2022/08/08 02:33:44;;;;;;;6.05;4.95;;;13.00;99.90;;;;;;5084850;28;20052;-47
2022/08/08 02:36:18;;;;;;;5.90;5.40;;;13.00;99.90;;;;;;5085601;28;20048;-47
2022/08/08 02:38:58;;;;;;;8.23;5.70;;;13.00;99.90;;;;;;5084510;28;20052;-50
2022/08/08 02:41:51;;;;;;;6.07;5.25;;;12.90;99.90;;;;;;5084709;28;20052;-47
2022/08/08 02:44:24;;;;;;;4.45;4.03;;;12.90;99.90;;;;;;5085177;28;20083;-48
2022/08/08 02:47:05;;;;;;;7.38;5.35;;;12.80;99.90;;;;;;5085151;28;20119;-49
2022/08/08 02:49:56;;;;;;;5.40;4.82;;;12.80;99.90;;;;;;5065565;28;20044;-47
2022/08/08 02:52:49;;;;;;;5.55;4.93;;;12.70;99.90;;;;;;5066649;28;20149;-47
2022/08/08 02:55:41;;;;;;;6.47;5.55;;;12.70;99.90;;;;;;5085416;28;20044;-49
2022/08/08 02:58:29;;;;;;;6.70;5.57;;;12.60;99.90;;;;;;5086804;28;20052;-47
2022/08/08 03:01:01;;;;;;;6.80;5.60;;;12.60;99.90;;;;;;5084331;28;20052;-48
2022/08/08 03:04:03;;;;;;;5.90;4.80;;;12.60;99.90;;;;;;5084934;28;20055;-48
2022/08/08 03:07:09;;;;;;;5.65;5.05;;;12.60;99.90;;;;;;5084693;28;20052;-48
2022/08/08 03:10:12;;;;;;;5.80;5.20;;;12.60;99.90;;;;;;5084911;28;20043;-49
2022/08/08 03:12:50;;;;;;;6.30;5.20;;;12.50;99.90;;;;;;5060195;28;20454;-48
2022/08/08 03:15:57;;;;;;;7.80;5.30;;;12.50;99.90;;;;;;5084673;28;20056;-47
2022/08/08 03:18:37;;;;;;;6.32;5.72;;;12.50;99.90;;;;;;5084783;28;20052;-50
2022/08/08 03:21:02;;;;;;;5.35;4.55;;;12.50;99.90;;;;;;5064924;28;20044;-51
2022/08/08 03:23:31;;;;;;;5.10;4.70;;;12.50;99.90;;;;;;5083754;28;20124;-48
2022/08/08 03:26:01;;;;;;;7.90;5.22;;;12.40;99.90;;;;;;5084126;28;20383;-46
2022/08/08 03:28:34;;;;;;;4.95;4.50;;;12.50;99.90;;;;;;5084613;28;20051;-47
2022/08/08 03:33:16;;;;;;;;;;;12.50;99.90;;;;;;5077947;28;20130;-51
2022/08/08 03:33:46;;;;;;;7.32;5.72;;;12.60;99.90;;;;;;5080120;28;19924;-47
2022/08/08 03:36:16;;;;;;;10.07;6.07;;;12.60;99.90;;;;;;5065839;28;20058;-47
2022/08/08 03:38:51;;;;;;;7.95;5.95;;;12.70;99.90;;;;;;5062642;28;20052;-49
2022/08/08 03:41:17;;;;;;;6.85;6.18;;;12.70;99.90;;;;;;5061386;28;20403;-53
2022/08/08 03:44:03;;;;;;;6.32;5.60;;;12.80;99.90;;;;;;5032032;28;20052;-52
2022/08/08 03:46:29;;;;;;;5.70;5.00;;;12.80;99.90;;;;;;5048537;28;20644;-48
2022/08/08 03:49:03;;;;;;;7.32;4.85;;;12.80;99.90;;;;;;5062499;28;20074;-47
2022/08/08 03:51:29;;;;;;;6.25;5.38;;;12.90;99.90;;;;;;5086124;28;20056;-47
2022/08/08 03:53:56;;;;;;;6.18;5.53;;;12.90;99.90;;;;;;5083961;28;20130;-48
2022/08/08 03:56:22;;;;;;;6.68;5.70;;;12.90;99.90;;;;;;5069058;28;20056;-48
2022/08/08 03:58:49;;;;;;;6.63;5.95;;;12.90;99.90;;;;;;5089152;28;20048;-48
2022/08/08 04:01:34;;;;;;;7.40;5.93;;;12.90;99.90;;;;;;5088588;28;20593;-48
2022/08/08 04:04:01;;;;;;;6.28;5.68;;;12.90;99.90;;;;;;5068453;28;20056;-48
2022/08/08 04:06:28;;;;;;;7.13;5.97;;;13.00;99.90;;;;;;5088862;28;20134;-52
2022/08/08 04:08:54;;;;;;;6.40;5.80;;;13.00;99.90;;;;;;5090152;28;20119;-47
2022/08/08 04:11:20;;;;;;;7.85;6.32;;;13.00;99.90;;;;;;5089605;28;20083;-47
2022/08/08 04:13:47;;;;;;;8.57;6.53;;;13.00;99.90;;;;;;5087050;28;20063;-48
2022/08/08 04:16:12;;;;;;;6.95;6.18;;;13.10;99.90;;;;;;5069353;28;20052;-48
2022/08/08 04:18:38;;;;;;;6.82;5.93;;;13.10;99.90;;;;;;5087777;28;20047;-48
2022/08/08 04:21:04;;;;;;;6.40;5.50;;;13.10;99.90;;;;;;5088579;28;20048;-48
2022/08/08 04:23:30;;;;;;;7.78;6.10;;;13.10;99.90;;;;;;5087483;28;20048;-49
2022/08/08 04:25:56;;;;;;;9.75;6.13;;;13.10;99.90;;;;;;5087472;28;20044;-47
2022/08/08 04:28:22;;;;;;;12.13;7.88;;;13.10;99.90;;;;;;5087982;28;20056;-47
2022/08/08 04:30:48;;;;;;;11.07;8.15;;;13.20;99.90;;;;;;5088689;28;20052;-49
2022/08/08 04:33:14;;;;;;;13.27;10.20;;;13.20;99.90;;;;;;5070104;28;20482;-51
2022/08/08 04:35:40;;;;;;;9.85;8.13;;;13.30;99.90;;;;;;5087926;28;20073;-49
2022/08/08 04:38:06;;;;;;;13.70;9.27;;;13.30;99.90;;;;;;5088097;28;20101;-47
2022/08/08 04:40:32;;;;;;;11.45;9.13;;;13.40;99.90;;;;;;5088047;28;20047;-49
2022/08/08 04:42:58;;;;;;;14.45;10.02;;;13.40;99.90;;;;;;5087308;28;20087;-51
2022/08/08 04:45:25;;;;;;;13.38;9.95;;;13.50;99.90;;;;;;5087312;28;20083;-48
2022/08/08 04:47:51;;;;;;;15.13;10.48;;;13.60;99.90;;;;;;5069233;28;20066;-47
2022/08/08 04:50:17;;;;;;;16.85;11.45;;;13.60;99.90;;;;;;5087585;28;20147;-49
2022/08/08 04:52:43;;;;;;;14.40;10.00;;;13.60;99.90;;;;;;5087897;28;20139;-48
2022/08/08 04:55:09;;;;;;;15.18;11.55;;;13.60;99.90;;;;;;5087145;28;20043;-54
2022/08/08 04:57:35;;;;;;;12.35;10.68;;;13.70;99.90;;;;;;5089109;28;20047;-48
2022/08/08 05:00:04;;;;;;;16.55;11.57;;;13.80;99.90;;;;;;5068034;28;20059;-50
2022/08/08 05:02:30;;;;;;;14.32;9.90;;;13.80;99.90;;;;;;5087199;28;20063;-47
2022/08/08 05:04:58;;;;;;;14.13;9.70;;;13.90;99.90;;;;;;5086844;28;20044;-48
2022/08/08 05:07:24;;;;;;;12.90;9.02;;;14.00;99.90;;;;;;5068131;28;20096;-47
2022/08/08 05:09:53;;;;;;;10.40;8.73;;;14.10;99.90;;;;;;5086827;28;20048;-48
2022/08/08 05:12:19;;;;;;;13.20;9.45;;;14.20;99.90;;;;;;5087208;28;20059;-47
2022/08/08 05:14:45;;;;;;;12.48;8.98;;;14.20;99.90;;;;;;5049288;28;20055;-47
2022/08/08 05:17:11;;;;;;;12.23;8.77;;;14.10;99.90;;;;;;5086800;28;20052;-47
2022/08/08 05:19:38;;;;;;;12.48;9.25;;;14.20;99.90;;;;;;5086187;28;20382;-48
2022/08/08 05:22:08;;;;;;;9.05;7.95;;;14.20;99.90;;;;;;5086618;28;20138;-47
2022/08/08 05:24:35;;;;;;;10.93;8.63;;;14.20;99.90;;;;;;5086429;28;20086;-48
2022/08/08 05:27:01;;;;;;;12.10;8.00;;;14.30;99.90;;;;;;5067880;28;20088;-46
2022/08/08 05:29:27;;;;;;;11.40;8.38;;;14.50;99.90;;;;;;5085902;28;20169;-47
2022/08/08 05:31:53;;;;;;;12.15;7.88;;;14.80;99.90;;;;;;5085555;28;20823;-47
2022/08/08 05:34:25;;;;;;;12.65;7.35;;;15.90;99.90;;;;;;5086320;28;20608;-47
2022/08/08 05:36:53;;;;;;;11.32;7.22;;;16.80;99.90;;;;;;5080396;28;20512;-47
2022/08/08 05:39:22;;;;;;;8.48;7.25;;;17.10;99.90;;;;;;5085814;28;20422;-47
2022/08/08 05:41:52;;;;;;;7.90;6.82;;;17.30;99.90;;;;;;5066286;28;20157;-50
2022/08/08 05:44:28;;;;;;;8.60;7.07;;;17.30;99.90;;;;;;5086093;28;20626;-48
2022/08/08 05:46:55;;;;;;;7.97;7.18;;;17.20;99.90;;;;;;5085641;28;20040;-49
2022/08/08 05:49:21;;;;;;;8.65;7.65;;;17.10;99.90;;;;;;5067534;28;20071;-48
2022/08/08 05:51:49;;;;;;;7.90;6.88;;;17.00;99.90;;;;;;5063721;28;20489;-49
2022/08/08 05:54:16;;;;;;;9.15;7.25;;;17.00;99.90;;;;;;5082973;28;20772;-48
2022/08/08 05:56:43;;;;;;;8.52;7.53;;;17.00;99.90;;;;;;5064243;28;20052;-47
2022/08/08 05:59:18;;;;;;;12.10;7.43;;;16.80;99.90;;;;;;5065845;28;20053;-50
2022/08/08 06:01:55;;;;;;;10.40;7.50;;;16.80;99.90;;;;;;5026830;28;20415;-48
2022/08/08 06:04:26;;;;;;;9.10;7.88;;;16.80;99.90;;;;;;5028515;28;20073;-50
2022/08/08 06:06:55;;;;;;;10.10;7.80;;;16.90;99.90;;;;;;5045410;28;20403;-47
2022/08/08 06:09:31;;;;;;;9.02;7.82;;;16.90;99.90;;;;;;5045362;28;20049;-52
2022/08/08 06:12:02;;;;;;;9.70;7.93;;;17.00;99.90;;;;;;5045481;28;20068;-50
2022/08/08 06:14:29;;;;;;;12.18;8.30;;;17.10;99.90;;;;;;5045029;28;20064;-47
2022/08/08 06:16:59;;;;;;;8.15;7.35;;;17.20;99.90;;;;;;5046238;28;20477;-50
2022/08/08 06:19:29;;;;;;;13.80;7.50;;;18.00;99.90;;;;;;5043197;28;20052;-48
2022/08/08 06:21:55;;;;;;;9.80;7.15;;;20.00;99.90;;;;;;5044870;28;20049;-49
2022/08/08 06:24:21;;;;;;;9.52;6.75;;;21.50;99.90;;;;;;5044588;28;20068;-51
2022/08/08 06:26:56;;;;;;;7.85;5.88;;;22.80;99.90;;;;;;5040556;28;20049;-47
2022/08/08 06:29:34;;;;;;;9.90;5.25;;;23.90;99.90;;;;;;5044406;28;20060;-48
2022/08/08 06:32:03;;;;;;;9.18;4.97;;;24.80;99.90;;;;;;5045259;28;20041;-48
2022/08/08 06:34:38;;;;;;;6.13;4.22;;;25.80;99.90;;;;;;5043931;28;20049;-49
2022/08/08 06:37:11;;;;;;;7.05;4.13;;;26.80;99.90;;;;;;5045951;28;20060;-49
2022/08/08 06:39:41;;;;;;;8.93;3.58;;;27.50;98.60;;;;;;5044864;28;20076;-48
2022/08/08 06:42:11;;;;;;;10.73;3.95;;;28.40;97.90;;;;;;5044608;28;20044;-52
2022/08/08 06:44:47;;;;;;;9.85;3.67;;;29.10;96.80;;;;;;5044729;28;20041;-48
2022/08/08 06:47:14;;;;;;;6.10;3.60;;;29.40;94.80;;;;;;5042695;28;20103;-50
2022/08/08 06:49:40;;;;;;;5.50;3.30;;;29.50;94.90;;;;;;5044344;28;20118;-48
2022/08/08 06:52:07;;;;;;;4.38;2.90;;;29.90;94.90;;;;;;5043836;28;20106;-49
2022/08/08 06:54:33;;;;;;;7.65;3.15;;;30.10;94.10;;;;;;5043841;28;20033;-49
2022/08/08 06:57:06;;;;;;;4.95;2.92;;;30.20;93.30;;;;;;5041329;28;20057;-51
2022/08/08 06:59:33;;;;;;;5.82;2.80;;;30.30;92.70;;;;;;5036413;28;20055;-47
2022/08/08 07:02:03;;;;;;;7.28;3.03;;;30.60;92.80;;;;;;5082723;28;20301;-47
2022/08/08 07:04:41;;;;;;;5.88;2.78;;;31.10;92.00;;;;;;5083931;28;20146;-49
2022/08/08 07:07:10;;;;;;;5.43;2.42;;;31.00;91.20;;;;;;5065791;28;20614;-51
2022/08/08 07:09:41;;;;;;;5.43;2.58;;;31.20;91.50;;;;;;5084167;28;20073;-49
2022/08/08 07:12:08;;;;;;;6.73;3.00;;;30.60;91.60;;;;;;5084382;28;20063;-51
2022/08/08 07:14:53;;;;;;;5.88;1.83;;;29.70;91.50;;;;;;5062197;28;21140;-50
2022/08/08 07:17:24;;;;;;;4.82;2.25;;;29.20;91.60;;;;;;5083247;28;20566;-51
2022/08/08 07:19:55;;;;;;;6.18;2.45;;;28.80;92.20;;;;;;5084037;28;20052;-49
2022/08/08 07:22:43;;;;;;;4.10;1.85;;;28.60;92.10;;;;;;5084437;28;20122;-51
2022/08/08 07:25:11;;;;;;;5.57;2.20;;;28.50;92.30;;;;;;5065350;28;20051;-51
2022/08/08 07:27:45;;;;;;;3.78;1.52;;;28.10;92.60;;;;;;5085162;28;20063;-52
2022/08/08 07:30:12;;;;;;;3.95;1.60;;;27.70;92.70;;;;;;5084186;28;20386;-52
2022/08/08 07:32:39;;;;;;;4.93;1.88;;;27.30;92.60;;;;;;5067260;28;20052;-49
2022/08/08 07:35:06;;;;;;;6.65;1.55;;;27.10;93.50;;;;;;5064669;28;20056;-48
2022/08/08 07:37:34;;;;;;;5.85;1.83;;;26.80;93.70;;;;;;5082559;28;20051;-54
2022/08/08 07:40:00;;;;;;;6.57;2.10;;;26.50;93.60;;;;;;5063896;28;20128;-52
2022/08/08 07:42:28;;;;;;;4.93;1.73;;;26.20;94.00;;;;;;5061814;28;20060;-50
2022/08/08 07:44:54;;;;;;;3.90;1.50;;;26.00;94.00;;;;;;5083161;28;20044;-50
2022/08/08 07:47:20;;;;;;;3.85;1.50;;;25.80;94.20;;;;;;5064784;28;20051;-51
2022/08/08 07:49:46;;;;;;;4.57;1.40;;;25.60;94.20;;;;;;5083788;28;20044;-51
2022/08/08 07:52:13;;;;;;;5.45;1.58;;;25.40;94.70;;;;;;5083535;28;20052;-49
2022/08/08 07:54:56;;;;;;;2.33;1.13;;;25.30;94.90;;;;;;5083505;28;20040;-52
2022/08/08 07:57:46;;;;;;;5.00;1.10;;;25.50;94.80;;;;;;5085257;28;20084;-49
2022/08/08 08:00:15;;;;;;;3.80;1.30;;;25.50;94.50;;;;;;5069357;28;20567;-53
2022/08/08 08:03:06;;;;;;;4.80;1.58;;;25.60;95.00;;;;;;5083095;28;20118;-52
2022/08/08 08:05:38;;;;;;;2.92;1.40;;;25.10;94.40;;;;;;5064859;28;20094;-51
2022/08/08 08:08:12;;;;;;;2.28;1.42;;;24.70;95.00;;;;;;5083370;28;20403;-53
2022/08/08 08:10:38;;;;;;;4.88;1.27;;;24.80;95.00;;;;;;5083521;28;20048;-50
2022/08/08 08:13:24;;;;;;;2.10;1.20;;;25.10;94.90;;;;;;5082768;28;20044;-52
2022/08/08 08:16:12;;;;;;;5.32;1.58;;;25.60;94.30;;;;;;5063198;28;20067;-52
2022/08/08 08:18:47;;;;;;;3.38;1.27;;;25.70;93.70;;;;;;5083875;28;20047;-53
2022/08/08 08:21:16;;;;;;;2.45;1.30;;;25.80;94.20;;;;;;5065279;28;20091;-53
2022/08/08 08:23:41;;;;;;;5.25;1.58;;;25.60;93.70;;;;;;5077932;28;20583;-52
2022/08/08 08:26:08;;;;;;;5.55;1.20;;;25.50;93.60;;;;;;5081608;28;20127;-53
2022/08/08 08:28:34;;;;;;;4.15;1.35;;;25.40;94.60;;;;;;5081669;28;20044;-51
2022/08/08 08:31:04;;;;;;;4.47;2.22;;;25.40;94.20;;;;;;5082566;28;20056;-50
2022/08/08 08:33:31;;;;;;;4.18;1.45;;;25.10;93.90;;;;;;5082622;28;20052;-54
2022/08/08 08:35:57;;;;;;;4.35;1.67;;;24.60;95.00;;;;;;5064577;28;20092;-53
2022/08/08 08:38:23;;;;;;;1.25;1.13;;;24.50;95.30;;;;;;5078916;28;20059;-54
2022/08/08 08:40:50;;;;;;;3.08;1.48;;;24.40;95.20;;;;;;5064415;28;20048;-54
2022/08/08 08:43:17;;;;;;;5.15;2.10;;;24.50;95.40;;;;;;5082947;28;20371;-51
2022/08/08 08:45:43;;;;;;;4.63;1.50;;;24.30;95.80;;;;;;5083063;28;20091;-54
2022/08/08 08:48:09;;;;;;;3.20;1.60;;;24.30;95.60;;;;;;5086622;28;20139;-54
2022/08/08 08:50:43;;;;;;;3.15;1.50;;;24.20;95.80;;;;;;5087292;28;20123;-55
2022/08/08 08:53:11;;;;;;;6.05;1.55;;;24.00;96.00;;;;;;5086119;28;20044;-52
2022/08/08 08:55:38;;;;;;;6.13;2.00;;;23.80;96.40;;;;;;5067433;28;20522;-53
2022/08/08 08:58:18;;;;;;;3.08;1.90;;;23.80;96.80;;;;;;5067478;28;20055;-52
2022/08/08 09:00:45;;;;;;;4.65;1.58;;;23.60;96.70;;;;;;5056129;28;20538;-53
2022/08/08 09:03:13;;;;;;;4.53;1.70;;;23.70;96.90;;;;;;5047974;28;20144;-51
2022/08/08 09:05:42;;;;;;;5.32;1.98;;;23.60;96.50;;;;;;5044933;28;20061;-53
2022/08/08 09:08:09;;;;;;;3.90;1.50;;;23.60;96.90;;;;;;5045243;28;20057;-53
2022/08/08 09:10:38;;;;;;;7.43;2.03;;;23.40;96.60;;;;;;5046184;28;20694;-54
2022/08/08 09:13:07;;;;;;;2.40;1.42;;;23.20;97.00;;;;;;5040425;28;20618;-54
2022/08/08 09:15:35;;;;;;;5.57;1.50;;;23.10;97.30;;;;;;5041585;28;20053;-54
2022/08/08 09:18:02;;;;;;;5.78;2.22;;;23.00;97.40;;;;;;5045934;28;20755;-54
2022/08/08 09:20:28;;;;;;;5.68;1.85;;;23.10;97.90;;;;;;5043543;28;20060;-52
2022/08/08 09:22:55;;;;;;;5.10;2.00;;;22.90;98.00;;;;;;5047324;28;20522;-52
2022/08/08 09:25:21;;;;;;;6.00;1.73;;;22.80;98.10;;;;;;5046124;28;20088;-53
2022/08/08 09:27:56;;;;;;;4.43;1.75;;;22.80;98.10;;;;;;5046492;28;20045;-55
2022/08/08 09:30:32;;;;;;;4.80;1.63;;;22.80;98.80;;;;;;5046239;28;20053;-53
2022/08/08 09:33:02;;;;;;;5.93;2.00;;;22.90;98.70;;;;;;5047744;28;20097;-54
2022/08/08 09:35:32;;;;;;;6.20;1.80;;;22.90;98.00;;;;;;5045240;28;20048;-52
2022/08/08 09:38:02;;;;;;;4.40;2.08;;;23.00;98.30;;;;;;5044097;28;20056;-54
2022/08/08 09:40:30;;;;;;;4.90;2.05;;;22.90;98.10;;;;;;5027247;28;20504;-55
2022/08/08 09:43:08;;;;;;;5.88;1.73;;;23.00;98.30;;;;;;5046092;28;20138;-53
2022/08/08 09:46:00;;;;;;;3.72;1.75;;;23.00;98.10;;;;;;5045743;28;20106;-53
2022/08/08 09:48:32;;;;;;;4.13;1.50;;;22.70;98.40;;;;;;5046390;28;20044;-55
2022/08/08 09:50:59;;;;;;;3.88;1.80;;;22.70;98.70;;;;;;5044600;28;20474;-55
2022/08/08 09:53:48;;;;;;;4.28;1.42;;;22.60;98.80;;;;;;5046104;28;20057;-53
2022/08/08 09:56:16;;;;;;;3.05;1.50;;;22.60;98.70;;;;;;5038826;28;20075;-52
2022/08/08 09:58:52;;;;;;;4.85;1.73;;;22.40;99.40;;;;;;5039855;28;20460;-51
2022/08/08 10:01:52;;;;;;;6.03;2.15;;;22.40;99.40;;;;;;5073922;28;20075;-54
2022/08/08 10:04:21;;;;;;;4.15;2.50;;;22.10;99.00;;;;;;5086385;28;20048;-52
2022/08/08 10:06:47;;;;;;;6.38;2.05;;;22.10;99.50;;;;;;5066307;28;20086;-53
2022/08/08 10:09:14;;;;;;;7.20;2.05;;;22.00;99.90;;;;;;5085022;28;20521;-54
2022/08/08 10:11:47;;;;;;;4.85;2.15;;;21.90;99.90;;;;;;5085353;28;20047;-52
2022/08/08 10:14:13;;;;;;;6.03;1.80;;;21.80;99.90;;;;;;5067549;28;20087;-53
2022/08/08 10:16:41;;;;;;;4.90;2.20;;;21.80;99.90;;;;;;5067332;28;20151;-54
2022/08/08 10:19:10;;;;;;;4.90;1.92;;;21.70;99.70;;;;;;5066710;28;20060;-53
2022/08/08 10:21:37;;;;;;;6.65;2.00;;;21.70;99.90;;;;;;5066786;28;20055;-54
2022/08/08 10:24:06;;;;;;;3.97;1.58;;;21.60;99.90;;;;;;5066689;28;20082;-55
2022/08/08 10:26:51;;;;;;;4.22;1.95;;;21.60;99.90;;;;;;5067339;28;20055;-55
2022/08/08 10:29:35;;;;;;;3.80;1.98;;;21.60;99.90;;;;;;5083753;28;20127;-54
2022/08/08 10:34:58;;;;;;;8.07;2.78;;;21.40;99.90;;;;;;5084564;28;20052;-52
2022/08/08 10:37:30;;;;;;;6.15;2.13;;;21.30;99.90;;;;;;5084298;28;20522;-53
2022/08/08 10:39:58;;;;;;;7.65;2.50;;;21.30;99.90;;;;;;5066572;28;20108;-53
2022/08/08 10:42:32;;;;;;;5.78;2.25;;;21.30;99.90;;;;;;5084648;28;20494;-52
2022/08/08 10:45:06;;;;;;;11.02;3.00;;;21.40;99.90;;;;;;5067004;28;20501;-51
2022/08/08 10:47:33;;;;;;;4.80;2.13;;;21.40;99.90;;;;;;5066235;28;20720;-53
2022/08/08 10:50:04;;;;;;;5.72;1.80;;;21.50;99.90;;;;;;5065400;28;20055;-50
2022/08/08 10:52:39;;;;;;;5.50;2.25;;;21.40;99.90;;;;;;5084837;28;20051;-52
2022/08/08 10:55:13;;;;;;;4.45;2.35;;;21.40;99.90;;;;;;5084112;28;20044;-52
2022/08/08 10:57:44;;;;;;;6.00;2.03;;;21.50;99.90;;;;;;5087398;28;20048;-54
2022/08/08 11:00:12;;;;;;;4.75;2.47;;;21.60;99.90;;;;;;5084028;28;20060;-53
2022/08/08 11:02:39;;;;;;;5.75;2.20;;;21.60;99.90;;;;;;5084927;28;20059;-52
2022/08/08 11:05:08;;;;;;;6.68;2.40;;;21.70;99.90;;;;;;5084787;28;20221;-53
2022/08/08 11:07:39;;;;;;;5.18;2.63;;;21.80;99.90;;;;;;5084959;28;20047;-53
2022/08/08 11:10:09;;;;;;;5.30;2.70;;;21.90;99.90;;;;;;5065212;28;20055;-52
2022/08/08 11:12:49;;;;;;;7.60;2.83;;;22.00;99.90;;;;;;5083521;28;20036;-53
2022/08/08 11:15:20;;;;;;;6.45;2.67;;;22.00;99.90;;;;;;5080578;28;20052;-56
2022/08/08 11:17:47;;;;;;;3.63;2.38;;;22.10;99.90;;;;;;5062806;28;20084;-53
2022/08/08 11:20:16;;;;;;;6.68;2.85;;;22.20;99.90;;;;;;5063979;28;20052;-52
2022/08/08 11:22:42;;;;;;;4.95;2.75;;;22.30;99.90;;;;;;5063190;28;20056;-53
2022/08/08 11:25:12;;;;;;;4.68;2.28;;;22.40;99.90;;;;;;5063416;28;20116;-55
2022/08/08 11:27:39;;;;;;;6.25;2.40;;;22.50;99.90;;;;;;5084326;28;20145;-54
2022/08/08 11:30:08;;;;;;;4.43;2.40;;;22.50;99.90;;;;;;5084264;28;20173;-53
2022/08/08 11:32:40;;;;;;;3.83;2.35;;;22.60;99.90;;;;;;5084119;28;20569;-56
2022/08/08 11:35:12;;;;;;;4.57;2.13;;;22.70;99.90;;;;;;5084200;28;20052;-55
2022/08/08 11:37:40;;;;;;;6.38;2.35;;;22.90;99.70;;;;;;5084726;28;20044;-54
2022/08/08 11:40:11;;;;;;;4.20;2.60;;;23.10;99.60;;;;;;5060784;28;20108;-51
2022/08/08 11:42:38;;;;;;;4.55;2.20;;;23.30;99.90;;;;;;5065019;28;20066;-54
2022/08/08 11:45:06;;;;;;;5.47;2.08;;;23.40;99.60;;;;;;5065516;28;20055;-54
2022/08/08 11:47:33;;;;;;;4.35;1.80;;;23.70;98.90;;;;;;5083967;28;20502;-54
2022/08/08 11:50:04;;;;;;;4.82;2.20;;;23.70;98.40;;;;;;5085053;28;20075;-55
2022/08/08 11:52:31;;;;;;;4.07;1.90;;;23.80;98.00;;;;;;5065128;28;20048;-54
2022/08/08 11:54:57;;;;;;;5.63;2.40;;;23.60;98.20;;;;;;5084209;28;20098;-53
2022/08/08 11:57:28;;;;;;;3.85;2.20;;;23.60;98.20;;;;;;5067712;28;20074;-54
2022/08/08 12:00:03;;;;;;;3.78;1.92;;;23.60;98.30;;;;;;5083428;28;20058;-56
2022/08/08 12:02:31;;;;;;;4.28;1.98;;;23.50;98.20;;;;;;5083350;28;20056;-52
2022/08/08 12:05:01;;;;;;;2.70;1.63;;;23.50;98.20;;;;;;5083751;28;20048;-53
2022/08/08 12:07:27;;;;;;;5.28;2.00;;;23.60;98.10;;;;;;5083934;28;20044;-54
2022/08/08 12:09:55;;;;;;;5.63;2.08;;;23.60;97.80;;;;;;5083879;28;20055;-55
2022/08/08 12:12:24;;;;;;;2.72;1.77;;;23.60;98.10;;;;;;5083746;28;20052;-53
2022/08/08 12:15:02;;;;;;;3.63;2.05;;;23.70;98.20;;;;;;5077661;28;20128;-54
2022/08/08 12:17:34;;;;;;;3.42;1.92;;;23.80;97.70;;;;;;5083518;28;20128;-53
2022/08/08 12:20:02;;;;;;;6.35;2.53;;;23.90;98.20;;;;;;5084056;28;20063;-50
2022/08/08 12:22:30;;;;;;;4.70;2.00;;;24.00;97.70;;;;;;5086752;28;20055;-55
2022/08/08 12:24:56;;;;;;;4.93;1.85;;;24.00;97.70;;;;;;5087468;28;20464;-53
2022/08/08 12:27:22;;;;;;;4.72;1.77;;;24.10;97.90;;;;;;5087434;28;20044;-55
2022/08/08 12:29:57;;;;;;;4.88;1.88;;;24.00;98.00;;;;;;5068632;28;20558;-55
2022/08/08 12:32:23;;;;;;;6.20;2.10;;;23.90;97.40;;;;;;5087651;28;20135;-54
2022/08/08 12:34:55;;;;;;;4.10;1.85;;;24.10;98.10;;;;;;5067920;28;20052;-55
2022/08/08 12:37:29;;;;;;;6.03;2.10;;;24.10;98.10;;;;;;5087382;28;20147;-53
2022/08/08 12:39:56;;;;;;;4.63;2.13;;;23.80;97.70;;;;;;5086993;28;20077;-55
2022/08/08 12:42:22;;;;;;;6.13;1.83;;;23.90;97.50;;;;;;5088100;28;20151;-53
2022/08/08 12:44:48;;;;;;;5.20;1.80;;;23.90;97.90;;;;;;5063916;28;20135;-54
2022/08/08 12:47:25;;;;;;;4.00;2.08;;;23.80;97.50;;;;;;5086879;28;20098;-54
2022/08/08 12:49:54;;;;;;;4.30;1.88;;;23.40;97.60;;;;;;5088014;28;20437;-53
2022/08/08 12:52:23;;;;;;;4.57;2.08;;;23.50;97.90;;;;;;5070423;28;20565;-54
2022/08/08 12:55:05;;;;;;;6.32;2.55;;;23.30;98.30;;;;;;5087830;28;20126;-53
2022/08/08 12:57:31;;;;;;;5.93;2.10;;;23.30;98.40;;;;;;5088544;28;20417;-53
2022/08/08 12:59:57;;;;;;;6.32;2.38;;;23.40;98.40;;;;;;5064589;28;20109;-54
2022/08/08 13:02:29;;;;;;;6.28;2.40;;;23.20;98.50;;;;;;5084604;28;20060;-55
2022/08/08 13:04:57;;;;;;;3.33;1.95;;;23.10;98.60;;;;;;5086351;28;20124;-53
2022/08/08 13:07:38;;;;;;;3.90;2.20;;;23.20;98.70;;;;;;5086790;28;20044;-54
2022/08/08 13:10:09;;;;;;;4.57;2.05;;;23.20;98.90;;;;;;5070447;28;20047;-55
2022/08/08 13:12:40;;;;;;;5.57;1.95;;;23.30;99.00;;;;;;5086329;28;20055;-57
2022/08/08 13:15:14;;;;;;;4.38;1.92;;;23.10;99.20;;;;;;5082506;28;20410;-52
2022/08/08 13:17:40;;;;;;;4.25;1.58;;;23.10;98.90;;;;;;5086570;28;20502;-56
2022/08/08 13:20:18;;;;;;;4.18;1.83;;;23.00;99.00;;;;;;5067976;28;20055;-51
2022/08/08 13:22:46;;;;;;;3.45;1.67;;;23.00;98.20;;;;;;5086889;28;20417;-55
2022/08/08 13:25:20;;;;;;;3.17;1.38;;;23.10;97.60;;;;;;5086638;28;20098;-54